Time;durP1;ratioP1;P1;durP2;ratioP2;P2;SDS_P1;SDS_P2;PMS_P1;PMS_P2;Temp;Humidity;BMP_temperature;BMP_pressure;BME280_temperature;BME280_humidity;BME280_pressure;Samples;Min_cycle;Max_cycle;Signal;HPM_P1;HPM_P2
2023/04/15 00:01:24;;;;;;;14.90;6.72;;;7.60;99.90;;;;;;5032910;28;20411;-83
2023/04/15 00:03:53;;;;;;;13.82;6.25;;;7.70;99.90;;;;;;5016117;28;20041;-83
2023/04/15 00:06:22;;;;;;;13.30;8.05;;;7.60;99.90;;;;;;5034042;28;20041;-83
2023/04/15 00:08:49;;;;;;;11.63;6.65;;;7.60;99.90;;;;;;5033794;28;20053;-83
2023/04/15 00:11:15;;;;;;;17.45;7.97;;;7.60;99.90;;;;;;5016041;28;20049;-83
2023/04/15 00:13:42;;;;;;;16.75;7.72;;;7.60;99.90;;;;;;5033804;28;20128;-83
2023/04/15 00:16:08;;;;;;;16.63;7.95;;;7.60;99.90;;;;;;5015917;28;20057;-83
2023/04/15 00:18:34;;;;;;;16.73;7.50;;;7.50;99.90;;;;;;5033635;28;20046;-83
2023/04/15 00:21:00;;;;;;;16.83;8.20;;;7.50;99.90;;;;;;5033657;28;20076;-83
2023/04/15 00:23:26;;;;;;;16.33;8.30;;;7.50;99.90;;;;;;5033766;28;20046;-83
2023/04/15 00:25:52;;;;;;;15.93;8.43;;;7.50;99.90;;;;;;5015789;28;20053;-83
2023/04/15 00:28:18;;;;;;;15.75;8.38;;;7.60;99.90;;;;;;5015828;28;20129;-83
2023/04/15 00:30:43;;;;;;;18.42;8.88;;;7.50;99.90;;;;;;5033632;28;20076;-83
2023/04/15 00:33:09;;;;;;;19.00;8.90;;;7.50;99.90;;;;;;5016174;28;20049;-84
2023/04/15 00:35:36;;;;;;;16.65;9.93;;;7.50;99.90;;;;;;5033519;28;20045;-83
2023/04/15 00:38:03;;;;;;;18.67;10.60;;;7.50;99.90;;;;;;5033302;28;20120;-84
2023/04/15 00:40:29;;;;;;;16.52;10.32;;;7.50;99.90;;;;;;5034189;28;20128;-83
2023/04/15 00:42:54;;;;;;;18.65;10.65;;;7.50;99.90;;;;;;5033406;28;20601;-84
2023/04/15 00:45:20;;;;;;;20.77;10.00;;;7.50;99.90;;;;;;5033323;28;20049;-83
2023/04/15 00:47:46;;;;;;;22.65;11.35;;;7.50;99.90;;;;;;5033365;28;20131;-84
2023/04/15 00:50:12;;;;;;;16.40;10.82;;;7.50;99.90;;;;;;5033485;28;20042;-83
2023/04/15 00:52:38;;;;;;;17.92;11.20;;;7.40;99.90;;;;;;5033202;28;20080;-84
2023/04/15 00:55:05;;;;;;;17.33;11.32;;;7.50;99.90;;;;;;5015498;28;20053;-84
2023/04/15 00:57:31;;;;;;;20.13;11.32;;;7.40;99.90;;;;;;5033201;28;20049;-83
2023/04/15 00:59:57;;;;;;;18.92;11.30;;;7.40;99.90;;;;;;5033267;28;20053;-83
2023/04/15 01:02:23;;;;;;;21.75;11.27;;;7.40;99.90;;;;;;5015581;28;20046;-84
2023/04/15 01:04:49;;;;;;;18.83;10.98;;;7.40;99.90;;;;;;5015592;28;20075;-83
2023/04/15 01:07:15;;;;;;;19.08;11.38;;;7.40;99.90;;;;;;5015692;28;20045;-83
2023/04/15 01:09:41;;;;;;;18.30;10.70;;;7.40;99.90;;;;;;5033047;28;20045;-84
2023/04/15 01:12:09;;;;;;;17.88;10.60;;;7.40;99.90;;;;;;5017122;28;20045;-82
2023/04/15 01:14:35;;;;;;;19.08;10.98;;;7.30;99.90;;;;;;5037265;28;20041;-83
2023/04/15 01:17:01;;;;;;;18.73;10.82;;;7.30;99.90;;;;;;5019329;28;20421;-83
2023/04/15 01:19:27;;;;;;;18.45;11.10;;;7.30;99.90;;;;;;5019229;28;20076;-83
2023/04/15 01:21:53;;;;;;;20.38;11.20;;;7.30;99.90;;;;;;5019264;28;20054;-83
2023/04/15 01:24:19;;;;;;;19.00;11.30;;;7.20;99.90;;;;;;5036969;28;20041;-83
2023/04/15 01:26:45;;;;;;;18.75;11.48;;;7.30;99.90;;;;;;5036940;28;20433;-83
2023/04/15 01:29:12;;;;;;;18.80;10.93;;;7.30;99.90;;;;;;5037091;28;20079;-82
2023/04/15 01:31:38;;;;;;;17.30;11.00;;;7.30;99.90;;;;;;5036827;28;20084;-82
2023/04/15 01:34:03;;;;;;;18.30;12.30;;;7.20;99.90;;;;;;5019126;28;20512;-82
2023/04/15 01:36:29;;;;;;;23.67;11.68;;;7.20;99.90;;;;;;5019054;28;20053;-82
2023/04/15 01:38:56;;;;;;;15.82;11.23;;;7.10;99.90;;;;;;5018795;28;20060;-82
2023/04/15 01:41:26;;;;;;;17.98;10.23;;;7.20;99.90;;;;;;5036636;28;20124;-82
2023/04/15 01:43:52;;;;;;;15.98;10.48;;;7.20;99.90;;;;;;5036871;28;20041;-82
2023/04/15 01:46:18;;;;;;;17.08;10.07;;;7.10;99.90;;;;;;5036321;28;20195;-82
2023/04/15 01:48:45;;;;;;;17.58;10.20;;;7.10;99.90;;;;;;5018926;28;20129;-82
2023/04/15 01:51:10;;;;;;;16.92;10.00;;;7.10;99.90;;;;;;5036080;28;20053;-82
2023/04/15 01:53:39;;;;;;;17.98;9.55;;;7.10;99.90;;;;;;5036446;28;20091;-82
2023/04/15 01:56:06;;;;;;;17.73;10.23;;;7.10;99.90;;;;;;5036306;28;20050;-82
2023/04/15 01:58:32;;;;;;;16.98;10.07;;;7.10;99.90;;;;;;5018566;28;20046;-82
2023/04/15 02:00:57;;;;;;;16.73;9.82;;;7.00;99.90;;;;;;5036250;28;20485;-82
2023/04/15 02:03:24;;;;;;;14.25;9.07;;;7.00;99.90;;;;;;5036092;28;20053;-82
2023/04/15 02:05:50;;;;;;;16.00;10.02;;;7.00;99.90;;;;;;5035967;28;20457;-82
2023/04/15 02:08:16;;;;;;;16.25;10.00;;;7.00;99.90;;;;;;5018465;28;20528;-82
2023/04/15 02:10:42;;;;;;;14.20;9.32;;;6.90;99.90;;;;;;5036009;28;20081;-82
2023/04/15 02:13:08;;;;;;;14.50;9.57;;;6.90;99.90;;;;;;5018249;28;20073;-82
2023/04/15 02:15:33;;;;;;;15.60;10.38;;;6.90;99.90;;;;;;5036030;28;20172;-82
2023/04/15 02:18:00;;;;;;;19.92;10.52;;;6.90;99.90;;;;;;5018319;28;20046;-82
2023/04/15 02:20:26;;;;;;;18.83;9.65;;;6.80;99.90;;;;;;5018135;28;20053;-82
2023/04/15 02:22:52;;;;;;;17.58;11.23;;;6.80;99.90;;;;;;5017415;28;20050;-82
2023/04/15 02:25:19;;;;;;;15.13;10.40;;;6.80;99.90;;;;;;5035458;28;20044;-82
2023/04/15 02:27:44;;;;;;;16.92;10.52;;;6.80;99.90;;;;;;5018111;28;20049;-82
2023/04/15 02:30:10;;;;;;;16.55;11.48;;;6.90;99.90;;;;;;5035912;28;20045;-82
2023/04/15 02:32:36;;;;;;;17.58;10.90;;;6.80;99.90;;;;;;5035742;28;20076;-83
2023/04/15 02:35:04;;;;;;;19.00;11.63;;;6.80;99.90;;;;;;5017860;28;20401;-83
2023/04/15 02:37:30;;;;;;;19.42;11.43;;;6.80;99.90;;;;;;5018398;28;20128;-83
2023/04/15 02:39:56;;;;;;;18.85;11.63;;;6.80;99.90;;;;;;5017867;28;20059;-83
2023/04/15 02:42:22;;;;;;;18.77;12.05;;;6.80;99.90;;;;;;5035695;28;20128;-83
2023/04/15 02:44:47;;;;;;;19.65;12.20;;;6.80;99.90;;;;;;5018183;28;20132;-83
2023/04/15 02:47:14;;;;;;;24.00;13.05;;;6.80;99.90;;;;;;5035537;28;20481;-83
2023/04/15 02:49:40;;;;;;;20.58;12.25;;;6.80;99.90;;;;;;5017487;28;20045;-83
2023/04/15 02:52:06;;;;;;;20.48;12.50;;;6.80;99.90;;;;;;5022697;28;20056;-83
2023/04/15 02:54:32;;;;;;;21.05;12.63;;;6.90;99.90;;;;;;5035187;28;20148;-83
2023/04/15 02:56:58;;;;;;;19.40;12.20;;;6.90;99.90;;;;;;5035303;28;20198;-84
2023/04/15 02:59:24;;;;;;;22.02;11.63;;;6.80;99.90;;;;;;5032448;28;20048;-82
2023/04/15 03:01:50;;;;;;;18.17;11.50;;;6.80;99.90;;;;;;5035065;28;20403;-82
2023/04/15 03:04:16;;;;;;;19.27;11.35;;;6.90;99.90;;;;;;5031439;28;20041;-83
2023/04/15 03:06:41;;;;;;;20.83;11.35;;;6.90;99.90;;;;;;5026736;28;20049;-82
2023/04/15 03:09:07;;;;;;;19.25;11.40;;;6.90;99.90;;;;;;5033955;28;20535;-83
2023/04/15 03:11:34;;;;;;;18.27;10.98;;;6.80;99.90;;;;;;5033616;28;20477;-82
2023/04/15 03:13:59;;;;;;;20.77;12.40;;;6.90;99.90;;;;;;5029149;28;20050;-83
2023/04/15 03:16:25;;;;;;;19.17;11.45;;;6.80;99.90;;;;;;5034583;28;20516;-82
2023/04/15 03:18:50;;;;;;;15.60;10.68;;;6.90;99.90;;;;;;5034615;28;20042;-82
2023/04/15 03:21:16;;;;;;;15.57;10.55;;;6.80;99.90;;;;;;5031156;28;20103;-83
2023/04/15 03:23:42;;;;;;;16.42;11.15;;;6.90;99.90;;;;;;5034717;28;20053;-82
2023/04/15 03:26:08;;;;;;;18.25;10.60;;;6.90;99.90;;;;;;5034704;28;20045;-82
2023/04/15 03:28:33;;;;;;;21.25;12.13;;;6.80;99.90;;;;;;5033331;28;20459;-83
2023/04/15 03:30:59;;;;;;;17.60;11.02;;;6.90;99.90;;;;;;5034543;28;20076;-83
2023/04/15 03:33:25;;;;;;;15.85;10.07;;;6.90;99.90;;;;;;5032254;28;20053;-82
2023/04/15 03:35:52;;;;;;;16.88;10.48;;;6.90;99.90;;;;;;5027091;28;20041;-83
2023/04/15 03:38:18;;;;;;;16.80;10.50;;;6.80;99.90;;;;;;5034424;28;20042;-82
2023/04/15 03:40:45;;;;;;;18.35;10.30;;;6.90;99.90;;;;;;5034417;28;20141;-83
2023/04/15 03:43:11;;;;;;;19.45;12.23;;;6.80;99.90;;;;;;5030219;28;20041;-83
2023/04/15 03:45:36;;;;;;;21.30;12.80;;;6.90;99.90;;;;;;5034280;28;20108;-83
2023/04/15 03:48:02;;;;;;;21.63;12.52;;;7.00;99.90;;;;;;5028501;28;20056;-83
2023/04/15 03:50:28;;;;;;;19.60;11.35;;;6.90;99.90;;;;;;5034198;28;20049;-83
2023/04/15 03:52:53;;;;;;;18.40;11.48;;;7.00;99.90;;;;;;5033931;28;20057;-83
2023/04/15 03:55:20;;;;;;;16.73;11.20;;;6.90;99.90;;;;;;5030992;28;20053;-83
2023/04/15 03:57:46;;;;;;;13.13;8.82;;;6.90;99.90;;;;;;5034144;28;20060;-83
2023/04/15 04:00:12;;;;;;;16.67;10.30;;;7.00;99.90;;;;;;5034153;28;20049;-83
2023/04/15 04:02:37;;;;;;;12.10;7.70;;;7.00;99.90;;;;;;5034200;28;20061;-82
2023/04/15 04:05:03;;;;;;;12.60;8.18;;;6.90;99.90;;;;;;5034152;28;20111;-83
2023/04/15 04:07:29;;;;;;;11.13;7.38;;;6.90;99.90;;;;;;5034128;28;20045;-83
2023/04/15 04:09:57;;;;;;;9.27;6.65;;;7.00;99.90;;;;;;5027521;28;20122;-82
2023/04/15 04:12:22;;;;;;;7.95;5.25;;;6.90;99.90;;;;;;5034674;28;20045;-83
2023/04/15 04:14:48;;;;;;;6.60;4.45;;;7.00;99.90;;;;;;5033888;28;20052;-83
2023/04/15 04:17:13;;;;;;;6.43;4.57;;;7.00;99.90;;;;;;5033903;28;20045;-84
2023/04/15 04:19:39;;;;;;;7.50;4.85;;;7.00;99.90;;;;;;5033679;28;20432;-83
2023/04/15 04:22:05;;;;;;;8.43;5.15;;;6.90;99.90;;;;;;5028750;28;20473;-83
2023/04/15 04:24:31;;;;;;;8.38;5.00;;;6.90;99.90;;;;;;5033889;28;20476;-82
2023/04/15 04:26:56;;;;;;;9.38;5.40;;;7.00;99.90;;;;;;5033729;28;20042;-82
2023/04/15 04:29:22;;;;;;;7.45;4.85;;;6.90;99.90;;;;;;5033482;28;20049;-82
2023/04/15 04:31:48;;;;;;;11.75;6.13;;;6.90;99.90;;;;;;5033608;28;20428;-82
2023/04/15 04:34:14;;;;;;;9.38;6.10;;;6.90;99.90;;;;;;5029569;28;20049;-82
2023/04/15 04:36:40;;;;;;;10.35;6.40;;;6.90;99.90;;;;;;5025002;28;20405;-83
2023/04/15 04:39:06;;;;;;;12.20;6.93;;;6.90;99.90;;;;;;5032334;28;20052;-81
2023/04/15 04:41:32;;;;;;;12.45;7.68;;;6.90;99.90;;;;;;5033635;28;20038;-82
2023/04/15 04:43:58;;;;;;;10.57;7.25;;;7.00;99.90;;;;;;5033294;28;20045;-83
2023/04/15 04:46:24;;;;;;;11.93;7.18;;;6.90;99.90;;;;;;5035264;28;20045;-82
2023/04/15 04:48:49;;;;;;;12.27;7.53;;;7.00;99.90;;;;;;5040224;28;20496;-82
2023/04/15 04:51:15;;;;;;;12.63;6.45;;;7.00;99.90;;;;;;5039926;28;20038;-82
2023/04/15 04:53:47;;;;;;;10.80;6.80;;;7.00;99.90;;;;;;5040179;28;20045;-82
2023/04/15 04:56:13;;;;;;;14.93;7.85;;;7.10;99.90;;;;;;5035642;28;20088;-82
2023/04/15 04:58:38;;;;;;;13.45;7.57;;;7.10;99.90;;;;;;5031096;28;20065;-82
2023/04/15 05:01:04;;;;;;;12.55;7.57;;;7.10;99.90;;;;;;5040112;28;20095;-82
2023/04/15 05:03:30;;;;;;;11.98;7.70;;;7.10;99.90;;;;;;5040017;28;20480;-82
2023/04/15 05:05:55;;;;;;;12.98;7.70;;;7.20;99.90;;;;;;5033536;28;20049;-82
2023/04/15 05:08:21;;;;;;;13.85;7.70;;;7.20;99.90;;;;;;5039700;28;20096;-82
2023/04/15 05:10:47;;;;;;;15.23;8.25;;;7.20;99.90;;;;;;5032346;28;20045;-82
2023/04/15 05:13:12;;;;;;;13.98;8.20;;;7.20;99.90;;;;;;5038990;28;20081;-82
2023/04/15 05:15:40;;;;;;;16.88;8.35;;;7.30;99.90;;;;;;5039726;28;20111;-82
2023/04/15 05:18:05;;;;;;;14.65;8.90;;;7.40;99.90;;;;;;5034686;28;20049;-83
2023/04/15 05:20:31;;;;;;;17.38;10.05;;;7.40;99.90;;;;;;5039835;28;20072;-83
2023/04/15 05:22:57;;;;;;;13.45;7.85;;;7.40;99.90;;;;;;5039619;28;20044;-82
2023/04/15 05:25:22;;;;;;;19.63;8.95;;;7.50;99.90;;;;;;5036956;28;20049;-83
2023/04/15 05:27:48;;;;;;;13.65;8.50;;;7.60;99.90;;;;;;5039849;28;20092;-82
2023/04/15 05:30:14;;;;;;;15.55;9.05;;;7.60;99.90;;;;;;5035752;28;20045;-82
2023/04/15 05:32:39;;;;;;;14.48;8.70;;;7.70;99.90;;;;;;5031036;28;20489;-81
2023/04/15 05:35:06;;;;;;;14.63;8.13;;;7.70;99.90;;;;;;5038649;28;20521;-82
2023/04/15 05:37:32;;;;;;;13.75;8.07;;;7.70;99.90;;;;;;5038563;28;20084;-82
2023/04/15 05:39:58;;;;;;;18.30;9.45;;;7.80;99.90;;;;;;5039586;28;20148;-82
2023/04/15 05:42:23;;;;;;;12.70;8.15;;;7.80;99.90;;;;;;5036724;28;20049;-82
2023/04/15 05:44:49;;;;;;;15.07;8.88;;;7.90;99.90;;;;;;5039615;28;20049;-82
2023/04/15 05:47:14;;;;;;;13.30;8.27;;;8.00;99.90;;;;;;5036325;28;20136;-82
2023/04/15 05:49:40;;;;;;;14.57;8.40;;;8.00;99.90;;;;;;5031031;28;20069;-82
2023/04/15 05:52:06;;;;;;;15.35;8.00;;;8.10;99.90;;;;;;5038089;28;20092;-82
2023/04/15 05:54:31;;;;;;;16.05;9.75;;;8.20;99.90;;;;;;5039299;28;20073;-82
2023/04/15 05:56:57;;;;;;;17.95;8.98;;;8.30;99.90;;;;;;5039286;28;20096;-82
2023/04/15 05:59:23;;;;;;;13.73;8.45;;;8.30;99.90;;;;;;5036617;28;20057;-82
2023/04/15 06:01:50;;;;;;;16.08;9.43;;;8.40;99.90;;;;;;5036509;28;20160;-82
2023/04/15 06:04:16;;;;;;;17.92;9.60;;;8.50;99.90;;;;;;5036352;28;20173;-82
2023/04/15 06:06:42;;;;;;;15.75;9.57;;;8.50;99.90;;;;;;5027608;28;20072;-82
2023/04/15 06:09:07;;;;;;;19.80;10.23;;;8.60;99.90;;;;;;5036160;28;20045;-82
2023/04/15 06:11:33;;;;;;;19.25;10.15;;;8.70;99.90;;;;;;5036234;28;20128;-82
2023/04/15 06:13:58;;;;;;;16.23;9.93;;;8.80;99.90;;;;;;5030094;28;20512;-82
2023/04/15 06:16:24;;;;;;;16.17;9.48;;;9.00;99.90;;;;;;5036203;28;20046;-82
2023/04/15 06:18:50;;;;;;;16.38;9.38;;;9.10;99.90;;;;;;5028679;28;20455;-81
2023/04/15 06:21:15;;;;;;;16.08;9.52;;;9.20;99.90;;;;;;5035921;28;20046;-81
2023/04/15 06:23:41;;;;;;;16.58;9.68;;;9.30;99.90;;;;;;5035798;28;20527;-80
2023/04/15 06:26:07;;;;;;;15.73;9.77;;;9.30;99.90;;;;;;5035943;28;20441;-82
2023/04/15 06:28:33;;;;;;;15.68;9.13;;;9.40;99.90;;;;;;5034250;28;20042;-82
2023/04/15 06:30:58;;;;;;;15.70;8.98;;;9.50;99.90;;;;;;5029741;28;20141;-84
2023/04/15 06:33:24;;;;;;;15.02;8.65;;;9.50;99.90;;;;;;5023139;28;20046;-82
2023/04/15 06:35:50;;;;;;;15.45;8.25;;;9.50;99.90;;;;;;5004879;28;20093;-82
2023/04/15 06:38:15;;;;;;;16.48;8.93;;;9.50;99.90;;;;;;4996129;28;20035;-82
2023/04/15 06:40:41;;;;;;;17.60;8.70;;;9.50;99.90;;;;;;4987682;28;20047;-82
2023/04/15 06:43:08;;;;;;;12.45;7.38;;;9.40;99.90;;;;;;4996260;28;20042;-84
2023/04/15 06:45:33;;;;;;;13.02;7.68;;;9.50;99.90;;;;;;4994473;28;20050;-82
2023/04/15 06:47:59;;;;;;;12.90;7.25;;;9.50;99.90;;;;;;4995791;28;20065;-81
2023/04/15 06:50:26;;;;;;;14.80;8.07;;;9.50;99.90;;;;;;4996040;28;20069;-88
2023/04/15 06:52:52;;;;;;;14.60;8.40;;;9.50;99.90;;;;;;4992716;28;20046;-83
2023/04/15 06:55:18;;;;;;;12.57;7.47;;;9.50;99.90;;;;;;5015411;28;20092;-84
2023/04/15 06:57:45;;;;;;;17.35;7.05;;;9.50;99.90;;;;;;5015156;28;20073;-84
2023/04/15 07:00:11;;;;;;;12.40;6.70;;;9.60;99.90;;;;;;5015148;28;20042;-84
2023/04/15 07:02:37;;;;;;;11.93;6.72;;;9.60;99.90;;;;;;5015136;28;20049;-84
2023/04/15 07:05:03;;;;;;;13.77;6.82;;;9.60;99.90;;;;;;5015028;28;20042;-84
2023/04/15 07:07:29;;;;;;;13.88;6.95;;;9.70;99.90;;;;;;5014937;28;20045;-84
2023/04/15 07:09:55;;;;;;;13.70;7.20;;;9.70;99.90;;;;;;5014644;28;20045;-84
2023/04/15 07:12:20;;;;;;;13.43;7.28;;;9.70;99.90;;;;;;4997887;28;20073;-84
2023/04/15 07:14:46;;;;;;;13.10;6.03;;;9.80;99.90;;;;;;5023443;28;20046;-82
2023/04/15 07:17:12;;;;;;;13.43;5.45;;;9.80;99.90;;;;;;5006567;28;20045;-82
2023/04/15 07:19:37;;;;;;;10.73;5.13;;;10.00;99.90;;;;;;5010456;28;20045;-82
2023/04/15 07:22:03;;;;;;;9.88;5.22;;;10.00;99.90;;;;;;5023643;28;20105;-82
2023/04/15 07:24:28;;;;;;;8.73;4.10;;;10.10;99.90;;;;;;5018245;28;20374;-82
2023/04/15 07:26:58;;;;;;;8.27;4.53;;;10.10;99.90;;;;;;5016754;28;20500;-83
2023/04/15 07:29:24;;;;;;;8.48;4.65;;;10.10;99.90;;;;;;5033546;28;20033;-82
2023/04/15 07:31:50;;;;;;;8.77;4.43;;;10.10;99.90;;;;;;4997204;28;20050;-83
2023/04/15 07:34:16;;;;;;;10.05;4.22;;;10.10;99.90;;;;;;5015329;28;20076;-84
2023/04/15 07:36:42;;;;;;;8.02;4.45;;;10.10;99.90;;;;;;5016680;28;20037;-82
2023/04/15 07:39:08;;;;;;;9.23;3.92;;;10.20;99.90;;;;;;5016470;28;20541;-84
2023/04/15 07:41:33;;;;;;;11.40;5.10;;;10.20;99.90;;;;;;5034269;28;20128;-82
2023/04/15 07:43:59;;;;;;;9.30;4.05;;;10.20;99.90;;;;;;5025308;28;20034;-85
2023/04/15 07:46:26;;;;;;;8.32;3.85;;;10.30;99.90;;;;;;5026273;28;20433;-85
2023/04/15 07:48:52;;;;;;;8.27;4.68;;;10.20;99.90;;;;;;4996683;28;20073;-85
2023/04/15 07:51:19;;;;;;;8.65;4.65;;;10.30;99.90;;;;;;4996298;28;20081;-85
2023/04/15 07:53:50;;;;;;;15.88;5.13;;;10.40;99.90;;;;;;5014456;28;20045;-84
2023/04/15 07:56:16;;;;;;;11.77;4.88;;;10.50;99.90;;;;;;4996512;28;20128;-85
2023/04/15 07:58:42;;;;;;;7.03;4.15;;;10.50;99.90;;;;;;5014260;28;20121;-84
2023/04/15 08:01:08;;;;;;;8.35;4.13;;;10.60;99.90;;;;;;5014107;28;20104;-84
2023/04/15 08:03:34;;;;;;;9.85;4.63;;;10.70;99.90;;;;;;4996665;28;20045;-84
2023/04/15 08:05:59;;;;;;;6.82;3.88;;;10.70;99.90;;;;;;5014175;28;20069;-78
2023/04/15 08:08:25;;;;;;;7.47;3.70;;;10.60;99.90;;;;;;5013878;28;20042;-81
2023/04/15 08:10:51;;;;;;;9.57;4.97;;;10.60;99.90;;;;;;5013969;28;20485;-82
2023/04/15 08:13:17;;;;;;;6.85;4.20;;;10.50;99.90;;;;;;4996493;28;20107;-82
2023/04/15 08:15:42;;;;;;;8.07;4.00;;;10.60;99.90;;;;;;4996564;28;20057;-83
2023/04/15 08:18:08;;;;;;;9.98;4.93;;;10.60;99.90;;;;;;4996133;28;20054;-83
2023/04/15 08:20:34;;;;;;;9.38;4.40;;;10.60;99.90;;;;;;5014022;28;20056;-85
2023/04/15 08:22:59;;;;;;;10.57;4.35;;;10.60;99.90;;;;;;4995604;28;20049;-84
2023/04/15 08:25:26;;;;;;;8.15;4.60;;;10.40;99.90;;;;;;5013870;28;20049;-85
2023/04/15 08:27:54;;;;;;;11.48;4.45;;;10.40;99.90;;;;;;5013708;28;20038;-82
2023/04/15 08:30:20;;;;;;;9.18;4.55;;;10.30;99.90;;;;;;5013916;28;20140;-82
2023/04/15 08:32:46;;;;;;;10.20;4.72;;;10.30;99.90;;;;;;5013796;28;20070;-79
2023/04/15 08:35:12;;;;;;;9.13;4.75;;;10.20;99.90;;;;;;5013428;28;20133;-78
2023/04/15 08:37:38;;;;;;;9.00;4.28;;;10.10;99.90;;;;;;5013878;28;20049;-83
2023/04/15 08:40:04;;;;;;;9.95;3.40;;;10.10;99.90;;;;;;5013361;28;20046;-82
2023/04/15 08:42:33;;;;;;;9.43;4.13;;;10.20;99.90;;;;;;5013688;28;20077;-83
2023/04/15 08:45:00;;;;;;;11.50;3.75;;;10.00;99.90;;;;;;5013487;28;20552;-84
2023/04/15 08:47:30;;;;;;;6.50;3.42;;;10.00;99.90;;;;;;4995859;28;20045;-82
2023/04/15 08:49:57;;;;;;;5.90;2.78;;;10.00;99.90;;;;;;4995854;28;20091;-82
2023/04/15 08:52:26;;;;;;;6.68;2.22;;;10.10;99.90;;;;;;5013046;28;20618;-82
2023/04/15 08:54:55;;;;;;;6.13;2.60;;;10.00;99.90;;;;;;5013499;28;20042;-82
2023/04/15 08:57:26;;;;;;;4.93;1.80;;;10.10;99.90;;;;;;5013646;28;20082;-82
2023/04/15 08:59:54;;;;;;;6.57;2.70;;;10.10;99.90;;;;;;4995580;28;20097;-82
2023/04/15 09:02:21;;;;;;;6.55;2.70;;;10.20;99.90;;;;;;5013186;28;20539;-82
2023/04/15 09:04:46;;;;;;;10.52;2.10;;;10.30;99.90;;;;;;5013482;28;20054;-82
2023/04/15 09:07:12;;;;;;;4.32;2.28;;;10.40;99.90;;;;;;4995914;28;20128;-82
2023/04/15 09:09:39;;;;;;;6.63;2.10;;;10.50;99.90;;;;;;5013350;28;20409;-83
2023/04/15 09:12:04;;;;;;;5.40;2.40;;;10.50;99.90;;;;;;5013182;28;20048;-83
2023/04/15 09:14:31;;;;;;;4.18;1.85;;;10.60;99.90;;;;;;4995548;28;20061;-80
2023/04/15 09:17:01;;;;;;;4.72;1.70;;;10.70;99.90;;;;;;5013415;28;20117;-82
2023/04/15 09:19:27;;;;;;;2.47;1.13;;;10.80;99.90;;;;;;4995524;28;20073;-83
2023/04/15 09:21:55;;;;;;;5.03;1.60;;;10.90;99.90;;;;;;5013091;28;20077;-83
2023/04/15 09:24:22;;;;;;;5.00;1.50;;;11.00;99.90;;;;;;5013442;28;20038;-83
2023/04/15 09:26:50;;;;;;;8.00;2.40;;;11.10;99.90;;;;;;5013301;28;20038;-84
2023/04/15 09:29:17;;;;;;;5.75;1.65;;;11.10;99.90;;;;;;5013426;28;20516;-84
2023/04/15 09:31:43;;;;;;;6.72;2.20;;;11.20;99.90;;;;;;4995753;28;20057;-84
2023/04/15 09:34:08;;;;;;;3.78;1.50;;;11.20;99.90;;;;;;5016384;28;20045;-84
2023/04/15 09:36:55;;;;;;;4.28;1.52;;;11.30;99.90;;;;;;4999138;28;20498;-84
2023/04/15 09:39:21;;;;;;;3.45;1.35;;;11.30;99.90;;;;;;4999151;28;20081;-83
2023/04/15 09:42:06;;;;;;;4.78;1.33;;;11.30;99.90;;;;;;5016465;28;20445;-85
2023/04/15 09:44:32;;;;;;;3.30;1.50;;;11.20;99.90;;;;;;5016891;28;20100;-85
2023/04/15 09:46:57;;;;;;;3.50;1.20;;;11.20;99.90;;;;;;4999214;28;20046;-83
2023/04/15 09:49:23;;;;;;;1.55;0.82;;;11.10;99.90;;;;;;5016606;28;20034;-84
2023/04/15 09:51:49;;;;;;;5.75;2.05;;;11.10;99.90;;;;;;5016278;28;20046;-83
2023/04/15 09:54:20;;;;;;;6.28;1.50;;;11.10;99.90;;;;;;4998762;28;20204;-84
2023/04/15 09:56:46;;;;;;;4.97;1.67;;;11.10;99.90;;;;;;4998990;28;20390;-85
2023/04/15 09:59:11;;;;;;;3.20;1.20;;;11.10;99.90;;;;;;4998937;28;20481;-84
2023/04/15 10:01:39;;;;;;;2.88;1.25;;;11.20;99.90;;;;;;5036025;28;20037;-84
2023/04/15 10:04:05;;;;;;;5.57;1.67;;;11.30;99.90;;;;;;5036197;28;20037;-84
2023/04/15 10:06:32;;;;;;;5.22;1.38;;;11.20;99.90;;;;;;5036251;28;20037;-84
2023/04/15 10:08:59;;;;;;;6.22;1.52;;;11.40;99.90;;;;;;5018183;28;20052;-84
2023/04/15 10:11:28;;;;;;;5.07;1.40;;;11.40;99.90;;;;;;5036021;28;20148;-84
2023/04/15 10:13:56;;;;;;;4.05;1.25;;;11.40;99.90;;;;;;5035847;28;20572;-84
2023/04/15 10:16:26;;;;;;;3.75;1.30;;;11.40;99.90;;;;;;5035988;28;20045;-84
2023/04/15 10:18:55;;;;;;;7.25;1.70;;;11.30;99.90;;;;;;5018087;28;20432;-84
2023/04/15 10:21:22;;;;;;;6.35;1.83;;;11.40;99.90;;;;;;5035901;28;20045;-84
2023/04/15 10:23:48;;;;;;;3.05;1.13;;;11.40;99.90;;;;;;5035931;28;20172;-83
2023/04/15 10:26:18;;;;;;;2.72;1.40;;;11.40;99.90;;;;;;5018066;28;20045;-84
2023/04/15 10:28:46;;;;;;;4.38;1.80;;;11.40;99.90;;;;;;5035637;28;20033;-84
2023/04/15 10:31:13;;;;;;;5.40;1.55;;;11.40;99.90;;;;;;5017752;28;20496;-84
2023/04/15 10:33:40;;;;;;;6.82;1.90;;;11.50;99.90;;;;;;5035460;28;20045;-84
2023/04/15 10:36:06;;;;;;;7.57;1.40;;;11.40;99.90;;;;;;5017959;28;20049;-85
2023/04/15 10:38:33;;;;;;;5.68;1.58;;;11.50;99.90;;;;;;5035237;28;20045;-85
2023/04/15 10:41:20;;;;;;;3.25;1.20;;;11.50;99.90;;;;;;5035384;28;20080;-84
2023/04/15 10:44:03;;;;;;;3.78;1.40;;;11.50;99.90;;;;;;5001321;28;20054;-84
2023/04/15 10:46:41;;;;;;;6.28;1.45;;;11.50;99.90;;;;;;5034834;28;20486;-84
2023/04/15 10:49:14;;;;;;;4.05;1.50;;;11.40;99.90;;;;;;5029941;28;20041;-84
2023/04/15 10:51:46;;;;;;;4.80;1.60;;;11.40;99.90;;;;;;5013946;28;20062;-85
2023/04/15 10:54:24;;;;;;;3.95;1.27;;;11.40;99.90;;;;;;5014520;28;20107;-83
2023/04/15 10:57:20;;;;;;;7.28;2.05;;;11.30;99.90;;;;;;5034921;28;20475;-86
2023/04/15 11:00:00;;;;;;;9.32;1.80;;;11.30;99.90;;;;;;5033905;28;20570;-84
2023/04/15 11:02:39;;;;;;;2.05;1.15;;;11.20;99.90;;;;;;5035097;28;20128;-84
2023/04/15 11:05:05;;;;;;;5.05;1.42;;;11.20;99.90;;;;;;5034784;28;20174;-84
2023/04/15 11:07:39;;;;;;;4.20;1.30;;;11.10;99.90;;;;;;5017360;28;20191;-85
2023/04/15 11:10:17;;;;;;;5.40;1.15;;;11.10;99.90;;;;;;5017346;28;20110;-85
2023/04/15 11:12:50;;;;;;;5.68;1.20;;;11.10;99.90;;;;;;5017095;28;20052;-85
2023/04/15 11:15:28;;;;;;;5.05;1.42;;;11.00;99.90;;;;;;5034948;28;20088;-85
2023/04/15 11:17:55;;;;;;;4.55;1.10;;;11.00;99.90;;;;;;5034832;28;20081;-84
2023/04/15 11:20:21;;;;;;;5.78;1.52;;;10.80;99.90;;;;;;5016654;28;20057;-84
2023/04/15 11:22:48;;;;;;;5.97;1.05;;;10.80;99.90;;;;;;5016781;28;20042;-85
2023/04/15 11:25:25;;;;;;;6.47;1.50;;;10.80;99.90;;;;;;5017106;28;20136;-84
2023/04/15 11:27:53;;;;;;;7.75;1.23;;;10.90;99.90;;;;;;5034104;28;20057;-84
2023/04/15 11:30:21;;;;;;;4.35;1.10;;;11.00;99.90;;;;;;5034190;28;20045;-82
2023/04/15 11:32:51;;;;;;;4.50;1.10;;;10.90;99.90;;;;;;5016326;28;20056;-82
2023/04/15 11:35:17;;;;;;;5.20;1.30;;;10.90;99.90;;;;;;5034185;28;20129;-82
2023/04/15 11:37:44;;;;;;;5.20;1.35;;;10.90;99.90;;;;;;5034212;28;20107;-84
2023/04/15 11:40:11;;;;;;;10.40;1.90;;;10.80;99.90;;;;;;5016183;28;20053;-85
2023/04/15 11:42:37;;;;;;;6.25;1.30;;;10.80;99.90;;;;;;5016215;28;20041;-84
2023/04/15 11:45:14;;;;;;;5.57;1.25;;;10.80;99.90;;;;;;5033859;28;20529;-85
2023/04/15 11:47:41;;;;;;;11.50;2.15;;;10.70;99.90;;;;;;5013983;28;20080;-85
2023/04/15 11:50:21;;;;;;;9.40;1.67;;;10.70;99.90;;;;;;5014191;28;20517;-82
2023/04/15 11:52:57;;;;;;;8.85;1.63;;;10.70;99.90;;;;;;4996418;28;20069;-81
2023/04/15 11:55:28;;;;;;;10.82;1.25;;;10.70;99.90;;;;;;5012770;28;20092;-82
2023/04/15 11:58:07;;;;;;;5.53;1.20;;;10.60;99.90;;;;;;5013894;28;20046;-82
2023/04/15 12:00:33;;;;;;;6.55;1.20;;;10.60;99.90;;;;;;5014099;28;20141;-83
2023/04/15 12:03:13;;;;;;;10.48;2.38;;;10.50;99.90;;;;;;4996311;28;20042;-82
2023/04/15 12:06:17;;;;;;;5.10;1.35;;;10.60;99.90;;;;;;5013929;28;20053;-83
2023/04/15 12:08:57;;;;;;;9.40;1.40;;;10.50;99.90;;;;;;5013924;28;20057;-82
2023/04/15 12:11:27;;;;;;;10.48;1.15;;;10.50;99.90;;;;;;4996281;28;20515;-82
2023/04/15 12:13:55;;;;;;;4.03;0.98;;;10.40;99.90;;;;;;4996014;28;20092;-81
2023/04/15 12:16:22;;;;;;;6.93;1.10;;;10.50;99.90;;;;;;5013627;28;20057;-80
2023/04/15 12:18:58;;;;;;;10.27;1.85;;;10.50;99.90;;;;;;5013758;28;20104;-82
2023/04/15 12:21:26;;;;;;;6.35;1.02;;;10.50;99.90;;;;;;4996015;28;20528;-83
2023/04/15 12:23:53;;;;;;;3.97;1.05;;;10.40;99.90;;;;;;5013380;28;20489;-89
2023/04/15 12:26:27;;;;;;;9.55;1.10;;;10.40;99.90;;;;;;5013469;28;20045;-87
2023/04/15 12:28:55;;;;;;;2.85;0.93;;;10.40;99.90;;;;;;5013730;28;20037;-83
2023/04/15 12:31:20;;;;;;;7.05;0.95;;;10.40;99.90;;;;;;4996196;28;20092;-82
2023/04/15 12:33:48;;;;;;;5.65;0.98;;;10.50;99.90;;;;;;5013394;28;20450;-83
2023/04/15 12:36:14;;;;;;;7.72;1.10;;;10.50;99.90;;;;;;5013556;28;20049;-83
2023/04/15 12:38:40;;;;;;;7.78;1.30;;;10.60;99.90;;;;;;4995630;28;20144;-83
2023/04/15 12:41:05;;;;;;;10.35;1.13;;;10.60;99.90;;;;;;4996009;28;20112;-83
2023/04/15 12:43:31;;;;;;;6.15;1.73;;;10.60;99.90;;;;;;4996068;28;20057;-84